CFE011 EGLC-EDDB
Flight info
| Callsign | CFE011 |
|---|---|
| Flight time | N/A |
| Altitude | 35000 |
| Route | ODUKU M84 CLN P44 RATLO M197 REDFA L620 TACHA DCT OSNAD DCT BATEL T207 OGBER OGBER1R |
| Aircraft | E190/M-SDE3GILORVW/S |
Departure
| Time | N/A |
|---|---|
| Airport | London City Airport (EGLC) |
Arrival
| Time | 2026-05-04 21:04 |
|---|---|
| Airport | Berlin Brandenburg Airport (EDDB) |
| Time | Latitude | Longitude | Altitude | Speed | Heading |
|---|---|---|---|---|---|
| 2026-05-04 19:52 | 52.04560 | 2.03248 | 30275 ft | 439 kts | 77° |
| 2026-05-04 19:53 | 52.05299 | 2.08070 | 30571 ft | 441 kts | 77° |
| 2026-05-04 19:53 | 52.06039 | 2.12911 | 30854 ft | 442 kts | 77° |
| 2026-05-04 19:53 | 52.06779 | 2.17773 | 31128 ft | 444 kts | 77° |
| 2026-05-04 19:53 | 52.07519 | 2.22646 | 31395 ft | 445 kts | 77° |
| 2026-05-04 19:54 | 52.08261 | 2.27551 | 31631 ft | 447 kts | 77° |
| 2026-05-04 19:54 | 52.08999 | 2.32445 | 31865 ft | 448 kts | 78° |
| 2026-05-04 19:54 | 52.09742 | 2.37390 | 32079 ft | 450 kts | 78° |
| 2026-05-04 19:54 | 52.10483 | 2.42335 | 32304 ft | 451 kts | 78° |
| 2026-05-04 19:55 | 52.11224 | 2.47292 | 32577 ft | 450 kts | 78° |
| 2026-05-04 19:55 | 52.11996 | 2.52233 | 32845 ft | 451 kts | 76° |
| 2026-05-04 19:55 | 52.12929 | 2.57078 | 33116 ft | 451 kts | 73° |
| 2026-05-04 19:55 | 52.13906 | 2.61917 | 33393 ft | 450 kts | 73° |
| 2026-05-04 19:56 | 52.14852 | 2.66699 | 33653 ft | 449 kts | 74° |
| 2026-05-04 19:56 | 52.15790 | 2.71558 | 33921 ft | 449 kts | 74° |
| 2026-05-04 19:56 | 52.16712 | 2.76387 | 34132 ft | 449 kts | 74° |
| 2026-05-04 19:56 | 52.17631 | 2.81231 | 34309 ft | 449 kts | 75° |
| 2026-05-04 19:57 | 52.18562 | 2.86155 | 34511 ft | 449 kts | 75° |
| 2026-05-04 19:57 | 52.19467 | 2.90958 | 34712 ft | 449 kts | 75° |
| 2026-05-04 19:57 | 52.20393 | 2.95889 | 34893 ft | 449 kts | 75° |
| 2026-05-04 19:57 | 52.21280 | 3.00613 | 35202 ft | 446 kts | 75° |
| 2026-05-04 19:58 | 52.22192 | 3.05492 | 35165 ft | 452 kts | 75° |
| 2026-05-04 19:58 | 52.24052 | 3.15489 | 35025 ft | 467 kts | 75° |
| 2026-05-04 19:59 | 52.25670 | 3.25836 | 35038 ft | 471 kts | 87° |
| 2026-05-04 19:59 | 52.25851 | 3.36465 | 35010 ft | 471 kts | 92° |
| 2026-05-04 20:00 | 52.25881 | 3.47163 | 35010 ft | 471 kts | 92° |
| 2026-05-04 20:00 | 52.25948 | 3.57864 | 35012 ft | 472 kts | 91° |
| 2026-05-04 20:01 | 52.25995 | 3.64794 | 35013 ft | 472 kts | 92° |
| 2026-05-04 20:01 | 52.26053 | 3.73867 | 35014 ft | 471 kts | 92° |
| 2026-05-04 20:02 | 52.26112 | 3.84561 | 35022 ft | 471 kts | 92° |
| 2026-05-04 20:02 | 52.26161 | 3.95271 | 35007 ft | 471 kts | 92° |
| 2026-05-04 20:03 | 52.26201 | 4.05966 | 35019 ft | 470 kts | 92° |
| 2026-05-04 20:03 | 52.26230 | 4.16655 | 35011 ft | 471 kts | 92° |
| 2026-05-04 20:04 | 52.26251 | 4.27341 | 35008 ft | 471 kts | 92° |
| 2026-05-04 20:04 | 52.26263 | 4.37969 | 35005 ft | 470 kts | 92° |
| 2026-05-04 20:05 | 52.26262 | 4.48652 | 35002 ft | 470 kts | 92° |
| 2026-05-04 20:05 | 52.26254 | 4.59328 | 34995 ft | 470 kts | 92° |
| 2026-05-04 20:06 | 52.26236 | 4.69940 | 34992 ft | 470 kts | 92° |
| 2026-05-04 20:06 | 52.26208 | 4.80597 | 34995 ft | 470 kts | 93° |
| 2026-05-04 20:07 | 52.26175 | 4.91274 | 34996 ft | 470 kts | 93° |
| 2026-05-04 20:07 | 52.26127 | 5.01960 | 34994 ft | 471 kts | 94° |
| 2026-05-04 20:08 | 52.26069 | 5.12666 | 34996 ft | 471 kts | 94° |
| 2026-05-04 20:08 | 52.26004 | 5.23365 | 34994 ft | 471 kts | 94° |
| 2026-05-04 20:09 | 52.25929 | 5.33974 | 34996 ft | 471 kts | 94° |
| 2026-05-04 20:09 | 52.25847 | 5.44632 | 34985 ft | 471 kts | 94° |
| 2026-05-04 20:10 | 52.25765 | 5.54459 | 34995 ft | 472 kts | 94° |
| 2026-05-04 20:10 | 52.25664 | 5.65187 | 34980 ft | 473 kts | 94° |
| 2026-05-04 20:11 | 52.25557 | 5.75919 | 34977 ft | 472 kts | 94° |
| 2026-05-04 20:11 | 52.25436 | 5.86572 | 34974 ft | 472 kts | 95° |
| 2026-05-04 20:12 | 52.25320 | 5.97283 | 34981 ft | 472 kts | 95° |
| 2026-05-04 20:12 | 52.25159 | 6.08029 | 34972 ft | 473 kts | 95° |
| 2026-05-04 20:13 | 52.25023 | 6.18569 | 34972 ft | 473 kts | 95° |
| 2026-05-04 20:13 | 52.24881 | 6.29287 | 34974 ft | 473 kts | 95° |
| 2026-05-04 20:14 | 52.24714 | 6.40035 | 34970 ft | 473 kts | 95° |
| 2026-05-04 20:14 | 52.24569 | 6.48949 | 34970 ft | 474 kts | 96° |
| 2026-05-04 20:15 | 52.24378 | 6.59720 | 34968 ft | 475 kts | 96° |
| 2026-05-04 20:15 | 52.24189 | 6.70513 | 34971 ft | 476 kts | 96° |
| 2026-05-04 20:16 | 52.23990 | 6.81318 | 34964 ft | 476 kts | 96° |
| 2026-05-04 20:16 | 52.23762 | 6.92118 | 34944 ft | 476 kts | 96° |
| 2026-05-04 20:17 | 52.23544 | 7.02926 | 34966 ft | 478 kts | 96° |
| 2026-05-04 20:17 | 52.23317 | 7.13777 | 34968 ft | 479 kts | 96° |
| 2026-05-04 20:18 | 52.23067 | 7.24658 | 34964 ft | 480 kts | 96° |
| 2026-05-04 20:18 | 52.22804 | 7.35538 | 34963 ft | 480 kts | 96° |
| 2026-05-04 20:19 | 52.22530 | 7.46415 | 34965 ft | 480 kts | 96° |
| 2026-05-04 20:19 | 52.22262 | 7.57331 | 34971 ft | 482 kts | 97° |
| 2026-05-04 20:20 | 52.21983 | 7.68186 | 34969 ft | 482 kts | 96° |
| 2026-05-04 20:20 | 52.21680 | 7.79127 | 34967 ft | 482 kts | 97° |
| 2026-05-04 20:21 | 52.21354 | 7.90050 | 34965 ft | 482 kts | 97° |
| 2026-05-04 20:21 | 52.20898 | 8.06460 | 34970 ft | 484 kts | 97° |
| 2026-05-04 20:22 | 52.20565 | 8.17440 | 34961 ft | 485 kts | 97° |
| 2026-05-04 20:22 | 52.20277 | 8.28355 | 34969 ft | 487 kts | 91° |
| 2026-05-04 20:23 | 52.21323 | 8.39331 | 34988 ft | 493 kts | 80° |
| 2026-05-04 20:23 | 52.22822 | 8.50179 | 34960 ft | 495 kts | 79° |
| 2026-05-04 20:24 | 52.24316 | 8.61167 | 34964 ft | 496 kts | 80° |
| 2026-05-04 20:24 | 52.25786 | 8.72169 | 34968 ft | 496 kts | 80° |
| 2026-05-04 20:25 | 52.27244 | 8.83183 | 34960 ft | 496 kts | 80° |
| 2026-05-04 20:25 | 52.28690 | 8.94200 | 34950 ft | 496 kts | 80° |
| 2026-05-04 20:26 | 52.30128 | 9.05238 | 34968 ft | 496 kts | 80° |
| 2026-05-04 20:26 | 52.31554 | 9.16257 | 34969 ft | 496 kts | 80° |
| 2026-05-04 20:27 | 52.32971 | 9.27300 | 34968 ft | 496 kts | 80° |
| 2026-05-04 20:27 | 52.34373 | 9.38311 | 34969 ft | 496 kts | 80° |
| 2026-05-04 20:28 | 52.35772 | 9.49373 | 34968 ft | 496 kts | 80° |
| 2026-05-04 20:28 | 52.37156 | 9.60421 | 34994 ft | 496 kts | 81° |
| 2026-05-04 20:29 | 52.38531 | 9.71491 | 34997 ft | 496 kts | 81° |
| 2026-05-04 20:29 | 52.39896 | 9.82566 | 34995 ft | 496 kts | 81° |
| 2026-05-04 20:30 | 52.41195 | 9.93173 | 34990 ft | 496 kts | 81° |
| 2026-05-04 20:30 | 52.42551 | 10.04344 | 34971 ft | 495 kts | 81° |
| 2026-05-04 20:31 | 52.43875 | 10.15347 | 34967 ft | 495 kts | 81° |
| 2026-05-04 20:31 | 52.45200 | 10.26417 | 34985 ft | 495 kts | 81° |
| 2026-05-04 20:32 | 52.46514 | 10.37516 | 34986 ft | 495 kts | 81° |
| 2026-05-04 20:32 | 52.47816 | 10.48605 | 34987 ft | 495 kts | 81° |
| 2026-05-04 20:33 | 52.49108 | 10.59697 | 34988 ft | 495 kts | 81° |
| 2026-05-04 20:33 | 52.50394 | 10.70778 | 34634 ft | 492 kts | 81° |
| 2026-05-04 20:34 | 52.51028 | 10.76266 | 33901 ft | 489 kts | 81° |
| 2026-05-04 20:34 | 52.51653 | 10.81726 | 33147 ft | 485 kts | 81° |
| 2026-05-04 20:34 | 52.52269 | 10.87147 | 32456 ft | 480 kts | 81° |
| 2026-05-04 20:34 | 52.52877 | 10.92500 | 31853 ft | 473 kts | 81° |
| 2026-05-04 20:35 | 52.53467 | 10.97778 | 31274 ft | 466 kts | 81° |
| 2026-05-04 20:35 | 52.54050 | 11.02983 | 30665 ft | 461 kts | 81° |
| 2026-05-04 20:35 | 52.54623 | 11.08136 | 30075 ft | 455 kts | 82° |
| 2026-05-04 20:35 | 52.54881 | 11.13215 | 29420 ft | 449 kts | 89° |
| 2026-05-04 20:36 | 52.54991 | 11.18297 | 28796 ft | 443 kts | 90° |
| 2026-05-04 20:36 | 52.55083 | 11.23349 | 28191 ft | 441 kts | 90° |
| 2026-05-04 20:36 | 52.55178 | 11.28409 | 27611 ft | 445 kts | 90° |
| 2026-05-04 20:36 | 52.55281 | 11.33496 | 27042 ft | 445 kts | 90° |
| 2026-05-04 20:37 | 52.55389 | 11.38564 | 26462 ft | 443 kts | 90° |
| 2026-05-04 20:37 | 52.55495 | 11.43608 | 25898 ft | 438 kts | 90° |
| 2026-05-04 20:37 | 52.55598 | 11.48583 | 25340 ft | 433 kts | 90° |
| 2026-05-04 20:37 | 52.55697 | 11.53484 | 24797 ft | 428 kts | 90° |
| 2026-05-04 20:38 | 52.55792 | 11.58343 | 24255 ft | 423 kts | 90° |
| 2026-05-04 20:38 | 52.55884 | 11.63162 | 23743 ft | 419 kts | 90° |
| 2026-05-04 20:38 | 52.55974 | 11.67923 | 23192 ft | 415 kts | 90° |
| 2026-05-04 20:38 | 52.56062 | 11.72646 | 22611 ft | 411 kts | 90° |
| 2026-05-04 20:39 | 52.56146 | 11.77256 | 22059 ft | 407 kts | 91° |
| 2026-05-04 20:39 | 52.56229 | 11.81880 | 21515 ft | 403 kts | 91° |
| 2026-05-04 20:39 | 52.56309 | 11.86459 | 20985 ft | 398 kts | 91° |
| 2026-05-04 20:39 | 52.56386 | 11.90978 | 20463 ft | 394 kts | 91° |
| 2026-05-04 20:40 | 52.56460 | 11.95456 | 19968 ft | 390 kts | 91° |
| 2026-05-04 20:40 | 52.56533 | 11.99884 | 19482 ft | 386 kts | 91° |
| 2026-05-04 20:40 | 52.56604 | 12.04268 | 19009 ft | 382 kts | 91° |
| 2026-05-04 20:40 | 52.56673 | 12.08614 | 18537 ft | 379 kts | 91° |
| 2026-05-04 20:41 | 52.56708 | 12.12934 | 18058 ft | 378 kts | 92° |
| 2026-05-04 20:41 | 52.56694 | 12.17239 | 17543 ft | 375 kts | 92° |
| 2026-05-04 20:41 | 52.56675 | 12.21506 | 17034 ft | 372 kts | 92° |
| 2026-05-04 20:41 | 52.56873 | 12.25734 | 16542 ft | 369 kts | 84° |
| 2026-05-04 20:42 | 52.57266 | 12.29886 | 16059 ft | 366 kts | 82° |
| 2026-05-04 20:42 | 52.57687 | 12.33988 | 15590 ft | 362 kts | 82° |
| 2026-05-04 20:42 | 52.58099 | 12.38059 | 15132 ft | 359 kts | 82° |
| 2026-05-04 20:42 | 52.58499 | 12.42097 | 14683 ft | 355 kts | 82° |
| 2026-05-04 20:43 | 52.58888 | 12.46086 | 14246 ft | 352 kts | 82° |
| 2026-05-04 20:43 | 52.59269 | 12.50041 | 13819 ft | 347 kts | 82° |
| 2026-05-04 20:43 | 52.59642 | 12.53932 | 13340 ft | 342 kts | 82° |
| 2026-05-04 20:43 | 52.59994 | 12.57607 | 12887 ft | 337 kts | 82° |
| 2026-05-04 20:44 | 52.60358 | 12.61440 | 12418 ft | 332 kts | 82° |
| 2026-05-04 20:44 | 52.60711 | 12.65173 | 11980 ft | 328 kts | 82° |
| 2026-05-04 20:44 | 52.60883 | 12.68836 | 11536 ft | 323 kts | 95° |
| 2026-05-04 20:44 | 52.60354 | 12.72345 | 11199 ft | 311 kts | 118° |
| 2026-05-04 20:45 | 52.59109 | 12.75115 | 11008 ft | 295 kts | 141° |
| 2026-05-04 20:45 | 52.57505 | 12.77157 | 10904 ft | 291 kts | 147° |
| 2026-05-04 20:45 | 52.55849 | 12.79113 | 10789 ft | 295 kts | 147° |
| 2026-05-04 20:45 | 52.54192 | 12.81102 | 10680 ft | 295 kts | 146° |
| 2026-05-04 20:46 | 52.52557 | 12.83114 | 10558 ft | 295 kts | 146° |
| 2026-05-04 20:46 | 52.50921 | 12.85145 | 10417 ft | 295 kts | 146° |
| 2026-05-04 20:46 | 52.49276 | 12.87158 | 10272 ft | 294 kts | 146° |
| 2026-05-04 20:46 | 52.47638 | 12.89148 | 10123 ft | 293 kts | 147° |
| 2026-05-04 20:47 | 52.45997 | 12.91129 | 9974 ft | 292 kts | 147° |
| 2026-05-04 20:47 | 52.44363 | 12.93099 | 9820 ft | 291 kts | 147° |
| 2026-05-04 20:47 | 52.42730 | 12.95068 | 9644 ft | 290 kts | 147° |
| 2026-05-04 20:47 | 52.41132 | 12.96993 | 9469 ft | 279 kts | 147° |
| 2026-05-04 20:48 | 52.39593 | 12.98846 | 9285 ft | 270 kts | 147° |
| 2026-05-04 20:48 | 52.38102 | 13.00619 | 9096 ft | 260 kts | 151° |
| 2026-05-04 20:48 | 52.36480 | 13.01694 | 8895 ft | 246 kts | 173° |
| 2026-05-04 20:48 | 52.34847 | 13.01544 | 8729 ft | 236 kts | 200° |
| 2026-05-04 20:49 | 52.33428 | 13.00259 | 8606 ft | 234 kts | 224° |
| 2026-05-04 20:49 | 52.32513 | 12.98098 | 8502 ft | 235 kts | 251° |
| 2026-05-04 20:49 | 52.32351 | 12.95455 | 8430 ft | 237 kts | 273° |
| 2026-05-04 20:49 | 52.32456 | 12.92770 | 8348 ft | 237 kts | 263° |
| 2026-05-04 20:50 | 52.31978 | 12.90218 | 8241 ft | 235 kts | 246° |
| 2026-05-04 20:50 | 52.31301 | 12.87778 | 8138 ft | 236 kts | 245° |
| 2026-05-04 20:50 | 52.30616 | 12.85350 | 8012 ft | 235 kts | 245° |
| 2026-05-04 20:50 | 52.29932 | 12.82919 | 7883 ft | 236 kts | 245° |
| 2026-05-04 20:51 | 52.29276 | 12.80460 | 7744 ft | 235 kts | 248° |
| 2026-05-04 20:51 | 52.28684 | 12.77978 | 7605 ft | 235 kts | 248° |
| 2026-05-04 20:51 | 52.28097 | 12.75499 | 7466 ft | 234 kts | 248° |
| 2026-05-04 20:51 | 52.27502 | 12.73022 | 7336 ft | 234 kts | 248° |
| 2026-05-04 20:52 | 52.26902 | 12.70559 | 7206 ft | 233 kts | 248° |
| 2026-05-04 20:52 | 52.26297 | 12.68099 | 7073 ft | 233 kts | 248° |
| 2026-05-04 20:52 | 52.25511 | 12.65812 | 6911 ft | 233 kts | 226° |
| 2026-05-04 20:52 | 52.24137 | 12.64449 | 6748 ft | 235 kts | 195° |
| 2026-05-04 20:53 | 52.22504 | 12.64512 | 6615 ft | 240 kts | 165° |
| 2026-05-04 20:53 | 52.20931 | 12.65447 | 6531 ft | 241 kts | 161° |
| 2026-05-04 20:53 | 52.19372 | 12.66443 | 6424 ft | 241 kts | 161° |
| 2026-05-04 20:53 | 52.17923 | 12.67816 | 6267 ft | 245 kts | 137° |
| 2026-05-04 20:54 | 52.17089 | 12.70226 | 6064 ft | 250 kts | 102° |
| 2026-05-04 20:54 | 52.16936 | 12.73037 | 5961 ft | 249 kts | 89° |
| 2026-05-04 20:54 | 52.17302 | 12.75793 | 5831 ft | 250 kts | 71° |
| 2026-05-04 20:54 | 52.17952 | 12.78421 | 5698 ft | 250 kts | 67° |
| 2026-05-04 20:55 | 52.18633 | 12.81022 | 5571 ft | 249 kts | 68° |
| 2026-05-04 20:55 | 52.19291 | 12.83630 | 5423 ft | 249 kts | 68° |
| 2026-05-04 20:55 | 52.19926 | 12.86209 | 5285 ft | 248 kts | 69° |
| 2026-05-04 20:55 | 52.20565 | 12.88807 | 5138 ft | 246 kts | 69° |
| 2026-05-04 20:56 | 52.21193 | 12.91375 | 5058 ft | 241 kts | 69° |
| 2026-05-04 20:56 | 52.21800 | 12.93861 | 4975 ft | 228 kts | 69° |
| 2026-05-04 20:56 | 52.22370 | 12.96198 | 4825 ft | 216 kts | 69° |
| 2026-05-04 20:56 | 52.22909 | 12.98420 | 4645 ft | 205 kts | 69° |
| 2026-05-04 20:57 | 52.23421 | 13.00530 | 4462 ft | 196 kts | 69° |
| 2026-05-04 20:57 | 52.23916 | 13.02567 | 4300 ft | 190 kts | 69° |
| 2026-05-04 20:57 | 52.24398 | 13.04556 | 4165 ft | 189 kts | 69° |
| 2026-05-04 20:57 | 52.24880 | 13.06553 | 4059 ft | 190 kts | 69° |
| 2026-05-04 20:58 | 52.25366 | 13.08558 | 3965 ft | 191 kts | 69° |
| 2026-05-04 20:58 | 52.25859 | 13.10574 | 3871 ft | 191 kts | 68° |
| 2026-05-04 20:58 | 52.26359 | 13.12582 | 3788 ft | 191 kts | 69° |
| 2026-05-04 20:58 | 52.26845 | 13.14596 | 3680 ft | 190 kts | 69° |
| 2026-05-04 20:59 | 52.27326 | 13.16600 | 3577 ft | 190 kts | 69° |
| 2026-05-04 20:59 | 52.27813 | 13.18619 | 3472 ft | 192 kts | 69° |
| 2026-05-04 20:59 | 52.28301 | 13.20645 | 3372 ft | 191 kts | 69° |
| 2026-05-04 20:59 | 52.28783 | 13.22656 | 3263 ft | 190 kts | 69° |
| 2026-05-04 21:00 | 52.29255 | 13.24626 | 3015 ft | 181 kts | 69° |
| 2026-05-04 21:00 | 52.29696 | 13.26468 | 2763 ft | 168 kts | 68° |
| 2026-05-04 21:00 | 52.30098 | 13.28184 | 2530 ft | 156 kts | 68° |
| 2026-05-04 21:00 | 52.30486 | 13.29786 | 2352 ft | 147 kts | 67° |
| 2026-05-04 21:01 | 52.30847 | 13.31281 | 2155 ft | 140 kts | 67° |
| 2026-05-04 21:01 | 52.31189 | 13.32721 | 2009 ft | 133 kts | 68° |
| 2026-05-04 21:01 | 52.31517 | 13.34101 | 1811 ft | 129 kts | 67° |
| 2026-05-04 21:01 | 52.31842 | 13.35467 | 1648 ft | 128 kts | 67° |
| 2026-05-04 21:02 | 52.32167 | 13.36829 | 1474 ft | 129 kts | 66° |
| 2026-05-04 21:02 | 52.32492 | 13.38200 | 1303 ft | 130 kts | 67° |
| 2026-05-04 21:02 | 52.32817 | 13.39563 | 1116 ft | 128 kts | 67° |
| 2026-05-04 21:02 | 52.33143 | 13.40920 | 922 ft | 128 kts | 66° |
| 2026-05-04 21:03 | 52.33481 | 13.42263 | 726 ft | 127 kts | 67° |
| 2026-05-04 21:03 | 52.33785 | 13.43611 | 634 ft | 127 kts | 68° |
| 2026-05-04 21:03 | 52.33992 | 13.44510 | 560 ft | 129 kts | 68° |
| 2026-05-04 21:03 | 52.34318 | 13.45917 | 384 ft | 130 kts | 68° |
| 2026-05-04 21:04 | 52.34641 | 13.47266 | 193 ft | 128 kts | 67° |
| 2026-05-04 21:04 | 52.34960 | 13.48528 | 158 ft | 121 kts | 66° |
| 2026-05-04 21:04 | 52.35241 | 13.49737 | 156 ft | 86 kts | 70° |
| 2026-05-04 21:04 | 52.35385 | 13.50365 | 155 ft | 48 kts | 68° |
| 2026-05-04 21:05 | 52.35532 | 13.50613 | 154 ft | 17 kts | 37° |
| 2026-05-04 21:05 | 52.35552 | 13.50638 | 154 ft | 2 kts | 39° |
| 2026-05-04 21:05 | 52.35573 | 13.50667 | 153 ft | 6 kts | 39° |
| 2026-05-04 21:05 | 52.35617 | 13.50724 | 151 ft | 10 kts | 39° |
| 2026-05-04 21:06 | 52.35679 | 13.50806 | 150 ft | 13 kts | 39° |
| 2026-05-04 21:06 | 52.35744 | 13.50898 | 151 ft | 11 kts | 47° |